createdAt,value
2023-05-04T00:01:28.632Z,22.67
2023-05-04T00:04:01.611Z,10.87
2023-05-04T00:06:34.962Z,22.00
2023-05-04T00:09:11.197Z,21.10
2023-05-04T00:11:44.438Z,22.43
2023-05-04T00:14:17.347Z,22.40
2023-05-04T00:16:50.500Z,12.63
2023-05-04T00:19:23.416Z,20.70
2023-05-04T00:21:56.250Z,23.53
2023-05-04T00:24:29.177Z,19.03
2023-05-04T00:27:01.996Z,16.97
2023-05-04T00:29:34.840Z,19.27
2023-05-04T00:32:07.736Z,11.77
2023-05-04T00:34:40.592Z,17.33
2023-05-04T00:37:13.659Z,22.90
2023-05-04T00:39:46.503Z,20.27
2023-05-04T00:42:19.488Z,14.20
2023-05-04T00:44:52.596Z,18.27
2023-05-04T00:47:26.617Z,7.67
2023-05-04T00:49:59.386Z,8.60
2023-05-04T00:52:32.856Z,20.63
2023-05-04T00:55:05.880Z,16.60
2023-05-04T00:57:39.022Z,17.23
2023-05-04T01:00:13.919Z,23.73
2023-05-04T01:02:47.005Z,12.10
2023-05-04T01:05:20.034Z,15.10
2023-05-04T01:10:48.984Z,14.33
2023-05-04T01:13:27.896Z,9.27
2023-05-04T01:16:01.174Z,18.80
2023-05-04T01:18:34.094Z,16.70
2023-05-04T01:21:07.116Z,9.13
2023-05-04T01:23:40.055Z,15.40
2023-05-04T01:26:17.398Z,9.40
2023-05-04T01:28:52.608Z,8.70
2023-05-04T01:31:27.073Z,11.70
2023-05-04T01:34:00.206Z,9.00
2023-05-04T01:36:34.096Z,7.50
2023-05-04T01:39:08.161Z,12.60
2023-05-04T01:41:41.349Z,10.00
2023-05-04T01:44:14.715Z,21.07
2023-05-04T01:46:47.796Z,14.70
2023-05-04T01:49:24.282Z,25.93
2023-05-04T01:51:57.189Z,11.87
2023-05-04T01:54:30.129Z,12.67
2023-05-04T01:57:03.847Z,17.03
2023-05-04T01:59:36.958Z,25.93
2023-05-04T02:02:10.048Z,21.00
2023-05-04T02:04:43.295Z,17.07
2023-05-04T02:07:16.148Z,17.47
2023-05-04T02:09:49.057Z,23.43
2023-05-04T02:12:22.148Z,20.00
2023-05-04T02:14:55.047Z,21.60
2023-05-04T02:17:27.917Z,24.27
2023-05-04T02:20:00.823Z,24.20
2023-05-04T02:22:33.656Z,13.63
2023-05-04T02:25:06.485Z,15.67
2023-05-04T02:27:39.451Z,26.40
2023-05-04T02:30:13.074Z,23.10
2023-05-04T02:32:45.940Z,17.00
2023-05-04T02:35:22.355Z,13.73
2023-05-04T02:37:55.378Z,31.47
2023-05-04T02:40:28.491Z,30.40
2023-05-04T02:43:02.875Z,22.23
2023-05-04T02:45:35.760Z,17.70
2023-05-04T02:48:09.905Z,19.53
2023-05-04T02:50:42.642Z,17.67
2023-05-04T02:53:15.913Z,26.43
2023-05-04T02:55:49.063Z,29.40
2023-05-04T02:58:22.178Z,24.77
2023-05-04T03:00:58.662Z,31.60
2023-05-04T03:03:31.772Z,21.23
2023-05-04T03:06:05.823Z,15.37
2023-05-04T03:08:38.451Z,31.20
2023-05-04T03:11:11.206Z,24.10
2023-05-04T03:13:44.013Z,16.80
2023-05-04T03:16:16.830Z,21.40
2023-05-04T03:21:38.339Z,17.07
2023-05-04T03:24:11.669Z,11.40
2023-05-04T03:26:44.305Z,11.17
2023-05-04T03:29:17.252Z,12.80
2023-05-04T03:31:50.155Z,12.17
2023-05-04T03:34:23.478Z,10.80
2023-05-04T03:36:56.549Z,4.50
2023-05-04T03:39:29.424Z,3.80
2023-05-04T03:42:02.827Z,8.97
2023-05-04T03:44:35.647Z,4.20
2023-05-04T03:47:08.806Z,6.70
2023-05-04T03:49:42.605Z,10.80
2023-05-04T03:52:15.476Z,3.13
2023-05-04T03:54:48.264Z,3.33
2023-05-04T03:57:21.033Z,11.53
2023-05-04T03:59:57.839Z,7.60
2023-05-04T04:02:30.348Z,5.37
2023-05-04T04:05:03.320Z,8.73
2023-05-04T04:07:35.896Z,5.20
2023-05-04T04:10:09.002Z,6.30
2023-05-04T04:12:41.882Z,8.00
2023-05-04T04:15:15.146Z,6.97
2023-05-04T04:17:48.055Z,3.60
2023-05-04T04:20:20.993Z,4.17
2023-05-04T04:22:53.793Z,2.67
2023-05-04T04:25:34.926Z,2.47
2023-05-04T04:28:08.244Z,3.53
2023-05-04T04:30:41.225Z,3.77
2023-05-04T04:33:14.164Z,2.80
2023-05-04T04:35:47.315Z,5.50
2023-05-04T04:38:20.425Z,9.00
2023-05-04T04:40:53.367Z,3.90
2023-05-04T04:43:26.291Z,2.20
2023-05-04T04:45:58.994Z,4.83
2023-05-04T04:48:32.377Z,1.60
2023-05-04T04:51:05.546Z,2.97
2023-05-04T04:53:44.608Z,2.30
2023-05-04T04:56:19.022Z,1.40
2023-05-04T04:58:52.751Z,2.83
2023-05-04T05:01:25.699Z,1.57
2023-05-04T05:03:58.576Z,4.30
2023-05-04T05:06:31.660Z,2.20
2023-05-04T05:09:07.092Z,1.70
2023-05-04T05:11:40.069Z,1.60
2023-05-04T05:14:13.198Z,1.43
2023-05-04T05:16:46.094Z,1.00
2023-05-04T05:19:19.141Z,4.53
2023-05-04T05:21:52.049Z,4.00
2023-05-04T05:24:24.931Z,1.80
2023-05-04T05:26:58.051Z,2.07
2023-05-04T05:29:31.028Z,1.07
2023-05-04T05:32:03.832Z,3.27
2023-05-04T05:34:36.830Z,1.63
2023-05-04T05:37:09.744Z,1.20
2023-05-04T05:39:42.598Z,6.17
2023-05-04T05:42:15.640Z,2.53
2023-05-04T05:44:48.466Z,1.17
2023-05-04T05:47:21.390Z,1.23
2023-05-04T05:49:54.583Z,6.10
2023-05-04T05:52:28.085Z,4.67
2023-05-04T05:55:02.601Z,0.90
2023-05-04T05:57:37.277Z,4.63
2023-05-04T06:00:11.164Z,2.87
2023-05-04T06:02:44.191Z,8.73
2023-05-04T06:05:17.346Z,19.07
2023-05-04T06:07:50.286Z,24.17
2023-05-04T06:10:23.217Z,54.00
2023-05-04T06:12:56.480Z,8.90
2023-05-04T06:15:29.230Z,18.93
2023-05-04T06:18:02.256Z,3.37
2023-05-04T06:20:35.185Z,5.23
2023-05-04T06:23:08.196Z,6.50
2023-05-04T06:25:42.243Z,1.53
2023-05-04T06:28:15.152Z,4.17
2023-05-04T06:30:49.888Z,6.80
2023-05-04T06:33:22.995Z,3.77
2023-05-04T06:35:56.884Z,1.53
2023-05-04T06:38:29.868Z,1.63
2023-05-04T06:41:02.946Z,4.43
2023-05-04T06:43:36.615Z,11.67
2023-05-04T06:46:09.654Z,3.97
2023-05-04T06:48:42.538Z,20.00
2023-05-04T06:51:15.895Z,1.10
2023-05-04T06:53:49.312Z,2.10
2023-05-04T06:56:24.428Z,8.97
2023-05-04T06:58:57.186Z,5.10
2023-05-04T07:01:30.301Z,2.60
2023-05-04T07:04:03.154Z,1.20
2023-05-04T07:06:36.126Z,6.13
2023-05-04T07:09:10.168Z,5.83
2023-05-04T07:11:43.347Z,3.27
2023-05-04T07:14:16.301Z,0.90
2023-05-04T07:16:49.249Z,1.73
2023-05-04T07:19:22.345Z,20.93
2023-05-04T07:21:55.190Z,14.63
2023-05-04T07:24:28.040Z,3.37
2023-05-04T07:27:01.190Z,3.73
2023-05-04T07:29:34.066Z,26.70
2023-05-04T07:32:07.003Z,7.40
2023-05-04T07:34:46.029Z,1.60
2023-05-04T07:37:18.084Z,3.43
2023-05-04T07:39:50.953Z,1.97
2023-05-04T07:42:25.041Z,2.40
2023-05-04T07:44:58.888Z,1.57
2023-05-04T07:47:32.588Z,1.53
2023-05-04T07:50:05.865Z,5.63
2023-05-04T07:52:38.912Z,2.77
2023-05-04T07:55:13.338Z,2.93
2023-05-04T07:57:46.378Z,1.90
2023-05-04T08:00:20.306Z,1.57
2023-05-04T08:02:52.928Z,2.03
2023-05-04T08:05:25.692Z,1.00
2023-05-04T08:08:00.422Z,1.43
2023-05-04T08:10:32.766Z,1.10
2023-05-04T08:13:10.171Z,4.93
2023-05-04T08:15:43.175Z,1.67
2023-05-04T08:18:16.143Z,4.77
2023-05-04T08:20:49.279Z,9.83
2023-05-04T08:23:22.197Z,7.87
2023-05-04T08:25:55.047Z,11.03
2023-05-04T08:28:27.835Z,12.90
2023-05-04T08:31:00.799Z,16.40
2023-05-04T08:33:33.878Z,2.70
2023-05-04T08:36:07.335Z,5.50
2023-05-04T08:38:40.161Z,6.00
2023-05-04T08:41:13.684Z,4.07
2023-05-04T08:43:47.611Z,8.13
2023-05-04T08:46:21.382Z,6.17
2023-05-04T08:48:54.979Z,5.03
2023-05-04T08:51:29.341Z,4.33
2023-05-04T08:54:04.413Z,2.40
2023-05-04T08:56:38.428Z,4.23
2023-05-04T08:59:13.066Z,1.30
2023-05-04T09:01:46.533Z,1.60
2023-05-04T09:04:20.252Z,4.07
2023-05-04T09:06:53.656Z,2.77
2023-05-04T09:09:30.229Z,3.70
2023-05-04T09:12:14.548Z,1.63
2023-05-04T09:14:48.289Z,1.73
2023-05-04T09:17:30.342Z,2.13
2023-05-04T09:20:07.936Z,4.23
2023-05-04T09:22:41.318Z,5.50
2023-05-04T09:25:18.048Z,2.63
2023-05-04T09:27:52.881Z,1.93
2023-05-04T09:30:26.289Z,1.20
2023-05-04T09:32:59.161Z,5.80
2023-05-04T09:35:35.283Z,6.03
2023-05-04T09:38:09.247Z,6.37
2023-05-04T09:40:45.974Z,4.53
2023-05-04T09:43:19.436Z,8.47
2023-05-04T09:45:53.216Z,5.97
2023-05-04T09:48:31.561Z,8.37
2023-05-04T09:51:06.081Z,23.23
2023-05-04T09:53:40.880Z,19.03
2023-05-04T09:56:32.295Z,22.13
2023-05-04T09:59:06.923Z,9.90
2023-05-04T10:01:44.796Z,19.00
2023-05-04T10:04:16.858Z,12.60
2023-05-04T10:06:49.967Z,20.97
2023-05-04T10:09:23.383Z,16.20
2023-05-04T10:11:56.432Z,9.63
2023-05-04T10:14:29.582Z,14.10
2023-05-04T10:17:27.656Z,17.60
2023-05-04T10:20:11.894Z,15.90
2023-05-04T10:23:01.516Z,15.00
2023-05-04T10:25:51.528Z,19.03
2023-05-04T10:28:35.788Z,9.90
2023-05-04T10:31:12.725Z,25.23
2023-05-04T10:33:46.200Z,16.93
2023-05-04T10:36:19.654Z,25.23
2023-05-04T10:38:52.807Z,22.93
2023-05-04T10:41:28.708Z,28.53
2023-05-04T10:44:11.925Z,17.80
2023-05-04T10:46:44.636Z,20.87
2023-05-04T10:49:20.885Z,18.77
2023-05-04T10:51:54.176Z,25.53
2023-05-04T10:54:27.777Z,26.70
2023-05-04T10:57:09.283Z,16.73
2023-05-04T10:59:42.628Z,11.87
2023-05-04T11:02:17.126Z,25.67
2023-05-04T11:04:50.030Z,22.50
2023-05-04T11:07:23.633Z,59.53
2023-05-04T11:09:56.610Z,23.30
2023-05-04T11:12:30.268Z,21.10
2023-05-04T11:15:10.232Z,14.83
2023-05-04T11:17:53.337Z,25.77
2023-05-04T11:20:27.059Z,26.60
2023-05-04T11:23:00.117Z,14.53
2023-05-04T11:25:34.149Z,14.60
2023-05-04T11:28:07.468Z,15.17
2023-05-04T11:30:40.407Z,23.57
2023-05-04T11:33:18.125Z,11.70
2023-05-04T11:35:51.054Z,13.40
2023-05-04T11:38:24.248Z,13.30
2023-05-04T11:40:57.539Z,23.43
2023-05-04T11:43:30.541Z,23.33
2023-05-04T11:46:04.698Z,25.80
2023-05-04T11:48:39.328Z,12.90
2023-05-04T11:51:12.310Z,31.47
2023-05-04T11:53:45.478Z,13.60
2023-05-04T11:56:21.088Z,14.40
2023-05-04T11:58:54.515Z,19.90
2023-05-04T12:01:27.578Z,28.43
2023-05-04T12:04:00.827Z,21.87
2023-05-04T12:06:37.930Z,25.27
2023-05-04T12:09:10.792Z,16.10
2023-05-04T12:11:43.717Z,20.73
2023-05-04T12:14:19.865Z,20.17
2023-05-04T12:17:01.249Z,33.10
2023-05-04T12:19:34.777Z,21.00
2023-05-04T12:22:08.026Z,22.03
2023-05-04T12:24:41.641Z,24.73
2023-05-04T12:27:20.425Z,17.97
2023-05-04T12:29:53.552Z,18.90
2023-05-04T12:32:26.647Z,20.90
2023-05-04T12:34:59.450Z,26.93
2023-05-04T12:37:32.551Z,20.33
2023-05-04T12:40:11.342Z,20.17
2023-05-04T12:42:39.647Z,13.17
2023-05-04T12:45:13.484Z,13.33
2023-05-04T12:47:46.748Z,17.80
2023-05-04T12:50:20.116Z,25.20
2023-05-04T12:52:53.439Z,19.63
2023-05-04T12:55:26.587Z,19.73
2023-05-04T12:57:59.779Z,15.20
2023-05-04T13:00:37.311Z,19.73
2023-05-04T13:03:14.243Z,13.60
2023-05-04T13:05:47.222Z,20.27
2023-05-04T13:08:21.729Z,12.53
2023-05-04T13:10:55.465Z,9.60
2023-05-04T13:13:33.996Z,18.67
2023-05-04T13:16:07.792Z,16.87
2023-05-04T13:18:40.645Z,12.60
2023-05-04T13:21:13.656Z,20.13
2023-05-04T13:23:46.531Z,25.83
2023-05-04T13:26:19.647Z,16.27
2023-05-04T13:28:53.766Z,12.10
2023-05-04T13:31:27.285Z,26.17
2023-05-04T13:34:00.194Z,26.53
2023-05-04T13:36:33.138Z,17.20
2023-05-04T13:39:06.245Z,17.87
2023-05-04T13:41:39.398Z,15.87
2023-05-04T13:44:12.201Z,17.17
2023-05-04T13:46:45.442Z,28.70
2023-05-04T13:49:18.172Z,19.00
2023-05-04T13:51:50.984Z,17.40
2023-05-04T13:54:24.242Z,15.20
2023-05-04T13:56:57.459Z,17.67
2023-05-04T13:59:30.851Z,11.07
2023-05-04T14:02:03.871Z,19.87
2023-05-04T14:04:39.098Z,15.17
2023-05-04T14:07:11.941Z,23.03
2023-05-04T14:09:44.778Z,16.50
2023-05-04T14:12:17.716Z,17.40
2023-05-04T14:14:50.915Z,13.70
2023-05-04T14:17:24.568Z,24.73
2023-05-04T14:19:57.193Z,17.83
2023-05-04T14:22:30.139Z,21.00
2023-05-04T14:25:03.320Z,19.03
2023-05-04T14:27:37.311Z,18.03
2023-05-04T14:30:11.422Z,19.53
2023-05-04T14:32:44.891Z,13.27
2023-05-04T14:35:19.061Z,15.27
2023-05-04T14:37:55.127Z,17.90
2023-05-04T14:40:28.270Z,19.33
2023-05-04T14:43:02.565Z,12.40
2023-05-04T14:45:41.295Z,23.90
2023-05-04T14:48:14.464Z,16.23
2023-05-04T14:50:47.542Z,12.60
2023-05-04T14:53:20.678Z,21.13
2023-05-04T14:55:54.030Z,13.27
2023-05-04T14:58:27.460Z,12.10
2023-05-04T15:01:00.708Z,22.70
2023-05-04T15:03:33.618Z,20.90
2023-05-04T15:06:06.909Z,15.03
2023-05-04T15:08:39.696Z,7.83
2023-05-04T15:11:12.593Z,20.43
2023-05-04T15:13:46.684Z,16.60
2023-05-04T15:16:22.770Z,15.30
2023-05-04T15:18:55.860Z,10.57
2023-05-04T15:21:29.737Z,18.23
2023-05-04T15:24:02.473Z,9.27
2023-05-04T15:26:36.408Z,12.17
2023-05-04T15:29:09.263Z,10.63
2023-05-04T15:31:42.958Z,19.53
2023-05-04T15:34:18.143Z,18.20
2023-05-04T15:36:50.182Z,19.50
2023-05-04T15:39:27.083Z,13.30
2023-05-04T15:41:59.976Z,6.60
2023-05-04T15:44:34.017Z,12.23
2023-05-04T15:47:08.285Z,15.47
2023-05-04T15:49:41.573Z,18.23
2023-05-04T15:52:19.016Z,12.20
2023-05-04T15:54:51.830Z,8.60
2023-05-04T15:57:25.000Z,10.60
2023-05-04T15:59:57.845Z,15.90
2023-05-04T16:02:31.256Z,16.70
2023-05-04T16:05:04.050Z,8.10
2023-05-04T16:07:37.097Z,18.63
2023-05-04T16:10:11.238Z,12.50
2023-05-04T16:12:44.115Z,7.40
2023-05-04T16:15:17.316Z,7.13
2023-05-04T16:17:50.348Z,11.67
2023-05-04T16:20:23.479Z,20.23
2023-05-04T16:22:56.458Z,14.30
2023-05-04T16:25:29.256Z,12.83
2023-05-04T16:28:06.528Z,8.23
2023-05-04T16:30:39.646Z,11.53
2023-05-04T16:33:12.499Z,16.33
2023-05-04T16:35:45.505Z,17.07
2023-05-04T16:38:18.883Z,13.50
2023-05-04T16:40:52.484Z,12.40
2023-05-04T16:43:25.961Z,18.13
2023-05-04T16:45:59.057Z,18.20
2023-05-04T16:48:32.653Z,13.37
2023-05-04T16:51:05.870Z,18.80
2023-05-04T16:53:39.195Z,10.53
2023-05-04T16:56:12.657Z,24.23
2023-05-04T16:58:45.883Z,11.13
2023-05-04T17:01:19.388Z,16.53
2023-05-04T17:03:52.908Z,6.10
2023-05-04T17:06:26.077Z,6.30
2023-05-04T17:08:59.208Z,12.83
2023-05-04T17:11:32.140Z,7.00
2023-05-04T17:14:09.847Z,13.47
2023-05-04T17:16:43.121Z,10.50
2023-05-04T17:19:16.254Z,7.90
2023-05-04T17:21:49.103Z,6.90
2023-05-04T17:24:22.258Z,7.47
2023-05-04T17:26:55.380Z,2.80
2023-05-04T17:29:28.146Z,7.17
2023-05-04T17:32:04.554Z,32.27
2023-05-04T17:34:41.556Z,11.67
2023-05-04T17:37:14.679Z,5.90
2023-05-04T17:39:48.923Z,7.13
2023-05-04T17:42:22.025Z,7.50
2023-05-04T17:44:55.278Z,8.37
2023-05-04T17:47:28.199Z,5.67
2023-05-04T17:50:02.284Z,6.03
2023-05-04T17:52:35.071Z,8.93
2023-05-04T17:55:08.202Z,9.70
2023-05-04T17:57:41.239Z,13.20
2023-05-04T18:00:15.356Z,9.63
2023-05-04T18:02:48.410Z,13.13
2023-05-04T18:05:21.425Z,4.03
2023-05-04T18:07:54.414Z,8.53
2023-05-04T18:10:27.605Z,11.80
2023-05-04T18:13:02.032Z,4.60
2023-05-04T18:15:35.191Z,13.43
2023-05-04T18:18:08.107Z,7.67
2023-05-04T18:20:41.190Z,15.27
2023-05-04T18:23:14.134Z,11.90
2023-05-04T18:25:51.480Z,9.10
2023-05-04T18:28:24.741Z,6.47
2023-05-04T18:30:57.723Z,11.53
2023-05-04T18:33:30.714Z,5.03
2023-05-04T18:36:03.631Z,14.47
2023-05-04T18:38:38.003Z,16.17
2023-05-04T18:41:11.024Z,17.67
2023-05-04T18:43:43.874Z,12.80
2023-05-04T18:46:16.880Z,18.37
2023-05-04T18:48:49.965Z,14.70
2023-05-04T18:51:22.930Z,20.00
2023-05-04T18:53:55.890Z,19.60
2023-05-04T18:56:29.353Z,17.50
2023-05-04T18:59:02.056Z,16.90
2023-05-04T19:01:35.043Z,25.63
2023-05-04T19:04:08.117Z,27.43
2023-05-04T19:06:40.962Z,32.10
2023-05-04T19:09:15.322Z,18.60
2023-05-04T19:12:11.597Z,15.70
2023-05-04T19:14:45.709Z,14.03
2023-05-04T19:17:19.282Z,11.00
2023-05-04T19:19:52.222Z,32.30
2023-05-04T19:22:25.843Z,14.93
2023-05-04T19:24:58.681Z,18.13
2023-05-04T19:27:31.755Z,17.00
2023-05-04T19:30:04.949Z,14.73
2023-05-04T19:32:39.272Z,21.73
2023-05-04T19:35:12.519Z,20.23
2023-05-04T19:37:45.448Z,13.50
2023-05-04T19:40:18.313Z,15.63
2023-05-04T19:42:51.089Z,17.57
2023-05-04T19:45:24.071Z,19.57
2023-05-04T19:47:56.846Z,12.30
2023-05-04T19:50:29.792Z,10.60
2023-05-04T19:53:05.657Z,16.53
2023-05-04T19:55:39.254Z,16.10
2023-05-04T19:58:12.649Z,13.43
2023-05-04T20:00:46.015Z,12.93
2023-05-04T20:03:19.893Z,16.70
2023-05-04T20:05:54.240Z,7.40
2023-05-04T20:08:27.109Z,10.00
2023-05-04T20:10:59.908Z,14.70
2023-05-04T20:13:32.838Z,18.50
2023-05-04T20:16:11.641Z,11.50
2023-05-04T20:18:44.528Z,14.33
2023-05-04T20:21:17.563Z,5.20
2023-05-04T20:23:50.421Z,11.30
2023-05-04T20:26:24.481Z,24.40
2023-05-04T20:28:57.549Z,11.10
2023-05-04T20:31:32.131Z,13.10
2023-05-04T20:34:04.491Z,16.07
2023-05-04T20:36:37.405Z,10.50
2023-05-04T20:39:10.639Z,17.00
2023-05-04T20:41:43.591Z,11.50
2023-05-04T20:44:16.700Z,23.73
2023-05-04T20:46:49.550Z,18.37
2023-05-04T20:49:22.714Z,9.83
2023-05-04T20:51:55.734Z,16.53
2023-05-04T20:54:28.653Z,21.83
2023-05-04T20:57:01.842Z,16.47
2023-05-04T20:59:35.426Z,5.00
2023-05-04T21:02:08.356Z,12.43
2023-05-04T21:04:42.009Z,16.50
2023-05-04T21:07:15.013Z,11.57
2023-05-04T21:09:47.844Z,12.97
2023-05-04T21:12:20.968Z,15.13
2023-05-04T21:14:53.827Z,10.80
2023-05-04T21:17:27.505Z,15.33
2023-05-04T21:20:00.648Z,20.53
2023-05-04T21:22:33.541Z,9.00
2023-05-04T21:25:07.196Z,14.47
2023-05-04T21:27:45.423Z,17.47
2023-05-04T21:30:18.355Z,12.23
2023-05-04T21:32:50.994Z,21.23
2023-05-04T21:35:24.107Z,18.83
2023-05-04T21:37:57.178Z,15.63
2023-05-04T21:40:39.943Z,11.80
2023-05-04T21:43:12.803Z,18.47
2023-05-04T21:45:45.711Z,15.60
2023-05-04T21:48:18.607Z,24.13
2023-05-04T21:50:51.559Z,10.80
2023-05-04T21:53:24.710Z,16.43
2023-05-04T21:55:57.894Z,14.57
2023-05-04T21:58:30.551Z,15.73
2023-05-04T22:01:03.501Z,14.47
2023-05-04T22:03:36.551Z,13.77
2023-05-04T22:06:10.538Z,12.57
2023-05-04T22:08:44.136Z,12.00
2023-05-04T22:11:17.180Z,17.03
2023-05-04T22:13:53.821Z,13.10
2023-05-04T22:16:27.858Z,24.03
2023-05-04T22:19:01.808Z,16.93
2023-05-04T22:21:36.826Z,20.10
2023-05-04T22:24:10.402Z,17.23
2023-05-04T22:26:43.216Z,17.77
2023-05-04T22:29:16.058Z,23.50
2023-05-04T22:31:49.473Z,20.77
2023-05-04T22:34:22.917Z,30.53
2023-05-04T22:36:56.018Z,14.67
2023-05-04T22:39:29.132Z,22.43
2023-05-04T22:42:01.877Z,15.13
2023-05-04T22:44:38.936Z,21.33
2023-05-04T22:47:16.037Z,20.97
2023-05-04T22:49:48.959Z,18.37
2023-05-04T22:52:21.784Z,20.83
2023-05-04T22:54:54.932Z,17.13
2023-05-04T22:57:28.088Z,14.10
2023-05-04T23:00:01.096Z,16.80
2023-05-04T23:02:37.890Z,29.73
2023-05-04T23:05:11.704Z,21.67
2023-05-04T23:07:45.531Z,21.60
2023-05-04T23:10:18.622Z,17.83
2023-05-04T23:12:51.561Z,29.60
2023-05-04T23:15:25.603Z,11.90
2023-05-04T23:17:58.853Z,15.20
2023-05-04T23:20:31.632Z,5.83
2023-05-04T23:23:05.108Z,18.33
2023-05-04T23:25:38.371Z,23.17
2023-05-04T23:28:11.112Z,8.43
2023-05-04T23:30:44.043Z,6.37
2023-05-04T23:33:16.913Z,9.37
2023-05-04T23:35:49.859Z,2.60
2023-05-04T23:38:22.647Z,4.60
2023-05-04T23:40:55.926Z,8.00
2023-05-04T23:43:28.665Z,2.10
2023-05-04T23:46:05.420Z,3.50
2023-05-04T23:48:38.393Z,4.40
2023-05-04T23:51:11.380Z,2.90
2023-05-04T23:53:44.331Z,7.50
2023-05-04T23:56:19.652Z,10.27
2023-05-04T23:58:52.517Z,9.63
